createdAt,value
2022-12-01T00:02:15.926Z,78.13
2022-12-01T00:05:13.539Z,78.26
2022-12-01T00:08:11.004Z,78.28
2022-12-01T00:11:08.449Z,78.35
2022-12-01T00:14:05.928Z,78.51
2022-12-01T00:17:05.123Z,78.55
2022-12-01T00:20:02.596Z,78.61
2022-12-01T00:23:00.084Z,78.69
2022-12-01T00:25:57.558Z,78.78
2022-12-01T00:28:55.034Z,78.87
2022-12-01T00:31:52.555Z,78.99
2022-12-01T00:34:50.236Z,78.98
2022-12-01T00:37:47.850Z,79.01
2022-12-01T00:40:45.440Z,79.07
2022-12-01T00:43:43.093Z,79.14
2022-12-01T00:46:40.665Z,79.17
2022-12-01T00:49:38.164Z,79.27
2022-12-01T00:52:35.631Z,79.25
2022-12-01T00:55:33.095Z,79.32
2022-12-01T00:58:30.534Z,79.34
2022-12-01T01:01:28.059Z,79.45
2022-12-01T01:04:25.569Z,79.49
2022-12-01T01:07:23.078Z,79.54
2022-12-01T01:10:20.582Z,79.64
2022-12-01T01:13:18.051Z,79.67
2022-12-01T01:16:15.561Z,79.75
2022-12-01T01:19:13.553Z,79.85
2022-12-01T01:22:11.044Z,79.96
2022-12-01T01:25:10.922Z,80.07
2022-12-01T01:28:08.365Z,80.22
2022-12-01T01:31:05.942Z,80.43
2022-12-01T01:34:03.701Z,80.57
2022-12-01T01:37:01.159Z,80.65
2022-12-01T01:39:58.618Z,80.79
2022-12-01T01:42:56.080Z,80.87
2022-12-01T01:45:53.588Z,80.92
2022-12-01T01:48:51.167Z,80.98
2022-12-01T01:51:48.591Z,81.01
2022-12-01T01:54:46.042Z,81.01
2022-12-01T01:57:43.483Z,81.00
2022-12-01T02:00:40.973Z,81.02
2022-12-01T02:03:38.439Z,80.99
2022-12-01T02:06:35.891Z,80.92
2022-12-01T02:09:33.340Z,80.91
2022-12-01T02:12:30.795Z,80.93
2022-12-01T02:15:28.266Z,80.98
2022-12-01T02:18:25.732Z,80.99
2022-12-01T02:21:23.258Z,81.07
2022-12-01T02:24:20.717Z,81.11
2022-12-01T02:27:18.170Z,81.09
2022-12-01T02:30:15.742Z,81.14
2022-12-01T02:33:13.207Z,81.12
2022-12-01T02:36:10.662Z,81.15
2022-12-01T02:39:08.110Z,81.13
2022-12-01T02:42:05.624Z,81.08
2022-12-01T02:45:03.105Z,81.00
2022-12-01T02:48:00.584Z,80.98
2022-12-01T02:50:58.055Z,81.02
2022-12-01T02:53:55.519Z,81.01
2022-12-01T02:56:52.989Z,81.08
2022-12-01T02:59:50.665Z,81.13
2022-12-01T03:02:50.643Z,81.20
2022-12-01T03:05:48.147Z,81.27
2022-12-01T03:08:46.245Z,81.25
2022-12-01T03:11:43.729Z,81.18
2022-12-01T03:14:41.959Z,81.20
2022-12-01T03:17:39.416Z,81.24
2022-12-01T03:20:36.879Z,81.28
2022-12-01T03:23:34.383Z,81.31
2022-12-01T03:26:31.832Z,81.34
2022-12-01T03:29:30.838Z,81.36
2022-12-01T03:32:28.683Z,81.42
2022-12-01T03:35:27.198Z,81.44
2022-12-01T03:38:24.688Z,81.42
2022-12-01T03:41:22.139Z,81.44
2022-12-01T03:44:19.610Z,81.49
2022-12-01T03:47:17.057Z,81.50
2022-12-01T03:50:14.575Z,81.58
2022-12-01T03:53:12.050Z,81.67
2022-12-01T03:56:09.506Z,81.69
2022-12-01T03:59:06.981Z,81.75
2022-12-01T04:02:04.500Z,81.81
2022-12-01T04:05:02.022Z,81.89
2022-12-01T04:07:59.542Z,81.94
2022-12-01T04:10:57.154Z,81.98
2022-12-01T04:13:54.636Z,82.06
2022-12-01T04:16:52.106Z,82.09
2022-12-01T04:19:49.892Z,82.11
2022-12-01T04:22:47.557Z,82.08
2022-12-01T04:25:45.026Z,82.14
2022-12-01T04:28:42.480Z,82.18
2022-12-01T04:31:40.035Z,82.21
2022-12-01T04:34:37.590Z,82.22
2022-12-01T04:37:35.044Z,82.29
2022-12-01T04:40:32.497Z,82.37
2022-12-01T04:43:29.982Z,82.44
2022-12-01T04:46:27.531Z,82.47
2022-12-01T04:49:25.086Z,82.53
2022-12-01T04:52:22.567Z,82.51
2022-12-01T04:55:20.035Z,82.53
2022-12-01T04:58:17.522Z,82.55
2022-12-01T05:01:15.062Z,82.55
2022-12-01T05:04:12.569Z,82.59
2022-12-01T05:07:10.488Z,82.53
2022-12-01T05:10:07.993Z,82.50
2022-12-01T05:13:05.449Z,82.39
2022-12-01T05:16:02.956Z,82.33
2022-12-01T05:19:14.314Z,82.38
2022-12-01T05:22:11.780Z,82.39
2022-12-01T05:25:09.220Z,82.39
2022-12-01T05:28:06.718Z,82.39
2022-12-01T05:31:04.307Z,82.41
2022-12-01T05:34:01.798Z,82.42
2022-12-01T05:36:59.283Z,82.37
2022-12-01T05:39:56.722Z,82.34
2022-12-01T05:42:54.214Z,82.28
2022-12-01T05:45:51.735Z,82.24
2022-12-01T05:48:49.240Z,82.25
2022-12-01T05:51:46.676Z,82.22
2022-12-01T05:54:44.113Z,82.20
2022-12-01T05:57:41.563Z,82.13
2022-12-01T06:00:45.417Z,82.07
2022-12-01T06:03:43.956Z,81.98
2022-12-01T06:06:41.447Z,82.01
2022-12-01T06:09:38.897Z,81.96
2022-12-01T06:12:36.361Z,81.92
2022-12-01T06:15:33.814Z,81.85
2022-12-01T06:18:31.282Z,81.79
2022-12-01T06:21:28.751Z,81.74
2022-12-01T06:24:26.217Z,81.66
2022-12-01T06:27:23.697Z,81.69
2022-12-01T06:30:21.195Z,81.70
2022-12-01T06:33:19.254Z,81.66
2022-12-01T06:36:16.710Z,81.54
2022-12-01T06:39:14.168Z,81.46
2022-12-01T06:42:12.235Z,81.40
2022-12-01T06:45:10.884Z,81.37
2022-12-01T06:48:08.676Z,81.25
2022-12-01T06:51:06.149Z,81.19
2022-12-01T06:54:05.620Z,81.17
2022-12-01T06:57:03.407Z,81.15
2022-12-01T07:00:00.991Z,81.16
2022-12-01T07:02:59.015Z,81.04
2022-12-01T07:05:58.598Z,80.93
2022-12-01T07:08:56.143Z,80.85
2022-12-01T07:11:53.690Z,80.62
2022-12-01T07:14:51.166Z,80.55
2022-12-01T07:17:48.584Z,80.40
2022-12-01T07:20:46.056Z,80.25
2022-12-01T07:23:43.524Z,80.10
2022-12-01T07:26:41.535Z,80.01
2022-12-01T07:29:39.004Z,79.86
2022-12-01T07:32:37.132Z,79.83
2022-12-01T07:35:34.579Z,79.78
2022-12-01T07:38:32.072Z,79.66
2022-12-01T07:41:29.526Z,79.51
2022-12-01T07:44:27.342Z,79.34
2022-12-01T07:47:24.813Z,79.17
2022-12-01T07:50:22.292Z,79.08
2022-12-01T07:53:19.807Z,78.93
2022-12-01T07:56:17.263Z,78.92
2022-12-01T07:59:14.751Z,78.81
2022-12-01T08:02:12.331Z,78.63
2022-12-01T08:05:10.021Z,78.54
2022-12-01T08:08:07.606Z,78.34
2022-12-01T08:11:05.319Z,78.24
2022-12-01T08:14:02.837Z,78.16
2022-12-01T08:17:00.484Z,77.73
2022-12-01T08:19:57.958Z,77.43
2022-12-01T08:22:55.445Z,77.22
2022-12-01T08:25:54.143Z,76.68
2022-12-01T08:28:51.591Z,76.62
2022-12-01T08:31:49.061Z,76.37
2022-12-01T08:34:52.957Z,76.15
2022-12-01T08:37:50.945Z,75.65
2022-12-01T08:40:48.443Z,75.00
2022-12-01T08:44:01.620Z,74.32
2022-12-01T08:46:59.575Z,74.02
2022-12-01T08:49:57.066Z,74.02
2022-12-01T08:52:54.522Z,73.72
2022-12-01T08:55:51.997Z,73.36
2022-12-01T08:58:50.469Z,73.08
2022-12-01T09:01:54.297Z,72.58
2022-12-01T09:04:51.835Z,72.38
2022-12-01T09:08:09.697Z,72.26
2022-12-01T09:11:07.260Z,72.32
2022-12-01T09:14:04.721Z,72.10
2022-12-01T09:17:02.179Z,71.83
2022-12-01T09:19:59.660Z,71.64
2022-12-01T09:22:57.101Z,71.46
2022-12-01T09:25:54.562Z,71.22
2022-12-01T09:28:52.029Z,71.02
2022-12-01T09:31:49.578Z,70.95
2022-12-01T09:34:47.051Z,71.02
2022-12-01T09:37:44.500Z,70.94
2022-12-01T09:40:42.784Z,71.26
2022-12-01T09:43:40.307Z,70.73
2022-12-01T09:46:37.807Z,70.54
2022-12-01T09:49:35.297Z,70.41
2022-12-01T09:52:32.784Z,70.20
2022-12-01T09:55:30.290Z,69.92
2022-12-01T09:58:28.162Z,69.76
2022-12-01T10:01:27.380Z,69.70
2022-12-01T10:04:25.332Z,69.81
2022-12-01T10:07:22.911Z,69.76
2022-12-01T10:10:20.447Z,69.48
2022-12-01T10:13:17.910Z,69.24
2022-12-01T10:16:15.389Z,69.27
2022-12-01T10:19:12.892Z,69.30
2022-12-01T10:22:10.384Z,69.23
2022-12-01T10:25:07.830Z,69.22
2022-12-01T10:28:05.288Z,69.12
2022-12-01T10:31:03.080Z,69.00
2022-12-01T10:34:00.550Z,68.89
2022-12-01T10:36:57.994Z,68.78
2022-12-01T10:39:55.428Z,68.70
2022-12-01T10:42:52.882Z,68.62
2022-12-01T10:45:50.368Z,68.50
2022-12-01T10:48:47.857Z,68.23
2022-12-01T10:51:45.350Z,68.00
2022-12-01T10:54:42.827Z,68.07
2022-12-01T10:57:40.290Z,67.96
2022-12-01T11:03:55.229Z,67.57
2022-12-01T11:06:52.735Z,67.51
2022-12-01T11:09:50.553Z,67.77
2022-12-01T11:12:48.362Z,67.58
2022-12-01T11:15:45.829Z,67.37
2022-12-01T11:18:43.375Z,67.11
2022-12-01T11:21:40.909Z,66.82
2022-12-01T11:24:38.366Z,66.77
2022-12-01T11:27:35.827Z,66.66
2022-12-01T11:30:33.305Z,66.55
2022-12-01T11:33:30.861Z,66.53
2022-12-01T11:36:28.346Z,66.37
2022-12-01T11:39:25.805Z,66.18
2022-12-01T11:42:23.243Z,66.15
2022-12-01T11:45:20.723Z,66.06
2022-12-01T11:48:18.259Z,65.72
2022-12-01T11:51:15.763Z,65.25
2022-12-01T11:54:13.248Z,65.04
2022-12-01T11:57:33.248Z,64.51
2022-12-01T12:00:28.130Z,64.32
2022-12-01T12:03:25.650Z,64.05
2022-12-01T12:09:45.071Z,64.01
2022-12-01T12:12:42.874Z,64.26
2022-12-01T12:15:40.361Z,64.06
2022-12-01T12:18:37.893Z,63.88
2022-12-01T12:21:35.456Z,63.96
2022-12-01T12:24:32.922Z,64.12
2022-12-01T12:27:30.406Z,63.79
2022-12-01T12:30:27.897Z,64.16
2022-12-01T12:33:25.404Z,63.78
2022-12-01T12:36:22.868Z,63.96
2022-12-01T12:39:20.432Z,64.04
2022-12-01T12:42:18.174Z,64.03
2022-12-01T12:45:15.620Z,64.09
2022-12-01T12:48:13.105Z,64.16
2022-12-01T12:51:10.738Z,64.25
2022-12-01T12:54:08.235Z,64.33
2022-12-01T12:57:05.745Z,64.54
2022-12-01T13:00:03.218Z,64.39
2022-12-01T13:03:00.710Z,64.39
2022-12-01T13:05:58.169Z,64.69
2022-12-01T13:08:55.692Z,64.50
2022-12-01T13:11:53.171Z,64.58
2022-12-01T13:14:50.636Z,64.72
2022-12-01T13:17:48.093Z,64.79
2022-12-01T13:20:46.620Z,64.86
2022-12-01T13:23:44.097Z,64.98
2022-12-01T13:26:41.565Z,64.97
2022-12-01T13:29:43.829Z,65.37
2022-12-01T13:32:43.239Z,65.47
2022-12-01T13:35:40.701Z,65.73
2022-12-01T13:38:38.186Z,65.74
2022-12-01T13:41:35.645Z,65.84
2022-12-01T13:44:33.142Z,66.04
2022-12-01T13:47:30.605Z,66.17
2022-12-01T13:50:28.075Z,66.24
2022-12-01T13:53:25.581Z,66.28
2022-12-01T13:56:23.015Z,66.35
2022-12-01T13:59:20.501Z,66.44
2022-12-01T14:02:18.027Z,66.51
2022-12-01T14:05:16.007Z,66.63
2022-12-01T14:08:17.101Z,66.80
2022-12-01T14:11:18.897Z,67.00
2022-12-01T14:14:18.824Z,67.20
2022-12-01T14:17:39.885Z,67.43
2022-12-01T14:20:38.009Z,67.58
2022-12-01T14:23:36.282Z,67.82
2022-12-01T14:26:34.767Z,68.05
2022-12-01T14:29:32.220Z,68.30
2022-12-01T14:32:29.666Z,68.53
2022-12-01T14:35:27.107Z,68.71
2022-12-01T14:38:24.583Z,68.78
2022-12-01T14:41:22.793Z,68.85
2022-12-01T14:44:20.497Z,68.90
2022-12-01T14:47:18.228Z,68.98
2022-12-01T14:50:15.732Z,69.07
2022-12-01T14:53:13.222Z,69.23
2022-12-01T14:56:10.683Z,69.38
2022-12-01T14:59:08.572Z,69.54
2022-12-01T15:02:09.156Z,69.62
2022-12-01T15:05:06.754Z,69.75
2022-12-01T15:08:33.336Z,69.90
2022-12-01T15:11:21.762Z,69.98
2022-12-01T15:14:19.201Z,70.07
2022-12-01T15:17:16.638Z,70.19
2022-12-01T15:20:14.131Z,70.32
2022-12-01T15:23:11.601Z,70.45
2022-12-01T15:26:09.066Z,70.54
2022-12-01T15:29:06.525Z,70.63
2022-12-01T15:32:04.082Z,70.72
2022-12-01T15:35:04.730Z,70.83
2022-12-01T15:38:02.439Z,70.97
2022-12-01T15:41:28.475Z,71.08
2022-12-01T15:44:17.329Z,71.18
2022-12-01T15:47:14.799Z,71.25
2022-12-01T15:50:12.883Z,71.37
2022-12-01T15:53:10.356Z,71.44
2022-12-01T15:56:07.821Z,71.51
2022-12-01T15:59:05.284Z,71.57
2022-12-01T16:02:03.330Z,71.65
2022-12-01T16:05:01.058Z,71.76
2022-12-01T16:08:13.183Z,71.83
2022-12-01T16:11:11.686Z,71.91
2022-12-01T16:14:10.029Z,72.08
2022-12-01T16:17:07.896Z,72.22
2022-12-01T16:20:05.470Z,72.35
2022-12-01T16:23:02.972Z,72.42
2022-12-01T16:26:02.263Z,72.46
2022-12-01T16:29:00.012Z,72.54
2022-12-01T16:32:19.308Z,72.59
2022-12-01T16:35:15.443Z,72.66
2022-12-01T16:38:13.195Z,72.75
2022-12-01T16:41:11.136Z,72.86
2022-12-01T16:44:38.918Z,73.02
2022-12-01T16:47:27.105Z,73.12
2022-12-01T16:50:24.802Z,73.28
2022-12-01T16:53:22.774Z,73.39
2022-12-01T16:56:20.479Z,73.40
2022-12-01T16:59:18.495Z,73.50
2022-12-01T17:02:16.220Z,73.64
2022-12-01T17:05:14.264Z,73.77
2022-12-01T17:08:12.494Z,73.79
2022-12-01T17:11:10.092Z,73.88
2022-12-01T17:14:07.569Z,73.99
2022-12-01T17:17:11.095Z,74.11
2022-12-01T17:20:09.221Z,74.30
2022-12-01T17:23:07.678Z,74.43
2022-12-01T17:26:05.222Z,74.58
2022-12-01T17:29:07.563Z,74.75
2022-12-01T17:32:06.429Z,74.85
2022-12-01T17:35:04.890Z,74.99
2022-12-01T17:38:02.415Z,75.03
2022-12-01T17:41:00.958Z,75.18
2022-12-01T17:44:01.837Z,75.31
2022-12-01T17:46:59.933Z,75.48
2022-12-01T17:49:57.882Z,75.63
2022-12-01T17:52:58.647Z,75.78
2022-12-01T17:55:56.351Z,75.90
2022-12-01T17:58:54.637Z,76.12
2022-12-01T18:01:52.647Z,76.28
2022-12-01T18:04:52.251Z,76.50
2022-12-01T18:07:51.404Z,76.62
2022-12-01T18:10:49.525Z,76.77
2022-12-01T18:13:47.436Z,76.89
2022-12-01T18:16:44.930Z,77.04
2022-12-01T18:19:43.190Z,77.15
2022-12-01T18:22:40.867Z,77.22
2022-12-01T18:25:38.926Z,77.26
2022-12-01T18:28:37.412Z,77.32
2022-12-01T18:31:36.018Z,77.38
2022-12-01T18:34:34.981Z,77.45
2022-12-01T18:37:36.097Z,77.43
2022-12-01T18:40:34.620Z,77.51
2022-12-01T18:43:33.002Z,77.58
2022-12-01T18:46:31.513Z,77.65
2022-12-01T18:49:29.532Z,77.68
2022-12-01T18:52:27.508Z,77.70
2022-12-01T18:55:25.414Z,77.72
2022-12-01T18:58:22.917Z,77.75
2022-12-01T19:01:21.539Z,77.75
2022-12-01T19:04:21.259Z,77.82
2022-12-01T19:07:21.328Z,77.86
2022-12-01T19:10:22.261Z,77.93
2022-12-01T19:13:21.314Z,77.73
2022-12-01T19:16:19.488Z,77.96
2022-12-01T19:19:17.670Z,78.11
2022-12-01T19:22:17.265Z,78.12
2022-12-01T19:25:15.362Z,78.24
2022-12-01T19:28:15.185Z,78.39
2022-12-01T19:31:13.598Z,78.44
2022-12-01T19:34:12.439Z,78.45
2022-12-01T19:37:11.775Z,78.51
2022-12-01T19:40:12.137Z,78.58
2022-12-01T19:43:11.163Z,78.65
2022-12-01T19:46:09.417Z,78.69
2022-12-01T19:49:10.868Z,78.75
2022-12-01T19:52:09.689Z,78.82
2022-12-01T19:55:09.993Z,78.90
2022-12-01T19:58:08.741Z,78.97
2022-12-01T20:01:07.868Z,79.05
2022-12-01T20:04:06.597Z,79.11
2022-12-01T20:07:04.663Z,79.13
2022-12-01T20:10:02.684Z,79.12
2022-12-01T20:13:01.918Z,79.16
2022-12-01T20:16:11.929Z,79.19
2022-12-01T20:19:11.234Z,79.23
2022-12-01T20:22:10.394Z,79.30
2022-12-01T20:25:10.717Z,79.30
2022-12-01T20:28:09.761Z,79.30
2022-12-01T20:31:07.727Z,79.31
2022-12-01T20:34:06.430Z,79.39
2022-12-01T20:37:05.473Z,79.42
2022-12-01T20:40:04.262Z,79.44
2022-12-01T20:43:02.983Z,79.44
2022-12-01T20:46:01.512Z,79.39
2022-12-01T20:49:00.153Z,79.42
2022-12-01T20:51:58.296Z,79.43
2022-12-01T20:54:56.368Z,79.42
2022-12-01T20:57:56.307Z,79.36
2022-12-01T21:00:56.353Z,79.39
2022-12-01T21:03:54.681Z,79.38
2022-12-01T21:06:54.147Z,79.41
2022-12-01T21:09:52.539Z,79.40
2022-12-01T21:13:07.722Z,79.43
2022-12-01T21:16:09.450Z,79.46
2022-12-01T21:19:11.540Z,79.44
2022-12-01T21:22:09.046Z,79.43
2022-12-01T21:25:06.525Z,79.44
2022-12-01T21:28:05.036Z,79.42
2022-12-01T21:31:03.017Z,79.41
2022-12-01T21:34:00.552Z,79.42
2022-12-01T21:36:59.202Z,79.43
2022-12-01T21:39:56.675Z,79.45
2022-12-01T21:42:54.149Z,79.41
2022-12-01T21:45:51.695Z,79.45
2022-12-01T21:48:49.589Z,79.44
2022-12-01T21:51:47.090Z,79.45
2022-12-01T21:54:44.573Z,79.47
2022-12-01T21:57:43.083Z,79.44
2022-12-01T22:00:41.303Z,79.48
2022-12-01T22:03:38.755Z,79.42
2022-12-01T22:06:36.227Z,79.40
2022-12-01T22:09:33.692Z,79.39
2022-12-01T22:12:32.054Z,79.36
2022-12-01T22:15:29.548Z,79.39
2022-12-01T22:18:27.018Z,79.36
2022-12-01T22:21:24.477Z,79.37
2022-12-01T22:24:21.955Z,79.42
2022-12-01T22:27:19.430Z,79.40
2022-12-01T22:30:16.881Z,79.34
2022-12-01T22:33:14.352Z,79.31
2022-12-01T22:36:12.215Z,79.33
2022-12-01T22:39:09.715Z,79.35
2022-12-01T22:42:07.176Z,79.32
2022-12-01T22:45:04.643Z,79.27
2022-12-01T22:48:02.102Z,79.26
2022-12-01T22:50:59.540Z,79.28
2022-12-01T22:53:57.061Z,79.24
2022-12-01T22:56:54.540Z,79.22
2022-12-01T22:59:52.022Z,79.24
2022-12-01T23:02:49.548Z,79.21
2022-12-01T23:05:47.072Z,79.20
2022-12-01T23:08:44.533Z,79.23
2022-12-01T23:11:42.022Z,79.18
2022-12-01T23:14:39.495Z,79.13
2022-12-01T23:17:39.093Z,79.13
2022-12-01T23:20:36.555Z,79.14
2022-12-01T23:23:34.019Z,79.13
2022-12-01T23:26:31.471Z,79.14
2022-12-01T23:29:28.953Z,79.13
2022-12-01T23:32:26.385Z,79.16
2022-12-01T23:35:23.849Z,79.16
2022-12-01T23:38:21.393Z,79.16
2022-12-01T23:41:23.980Z,79.11
2022-12-01T23:44:22.913Z,79.08
2022-12-01T23:47:20.369Z,79.07
2022-12-01T23:50:17.831Z,79.06
2022-12-01T23:53:15.319Z,79.05
2022-12-01T23:56:12.783Z,79.04
2022-12-01T23:59:10.249Z,79.06
